Time;durP1;ratioP1;P1;durP2;ratioP2;P2;SDS_P1;SDS_P2;PMS_P1;PMS_P2;Temp;Humidity;BMP_temperature;BMP_pressure;BME280_temperature;BME280_humidity;BME280_pressure;Samples;Min_cycle;Max_cycle;Signal;HPM_P1;HPM_P2
2021/10/15 00:02:15;;;;;;;12.20;5.25;;;;;;;12.70;82.70;101317.38;5086186;28;20407;-82
2021/10/15 00:04:42;;;;;;;13.35;5.90;;;;;;;12.71;82.84;101324.53;5088781;28;20058;-83
2021/10/15 00:07:09;;;;;;;10.73;6.38;;;;;;;12.69;83.04;101314.94;5087211;28;20128;-83
2021/10/15 00:09:38;;;;;;;15.82;6.20;;;;;;;12.70;83.29;101328.50;5086340;28;20135;-82
2021/10/15 00:12:05;;;;;;;15.60;7.22;;;;;;;12.73;83.16;101324.22;5084921;28;20119;-82
2021/10/15 00:14:32;;;;;;;14.90;6.88;;;;;;;12.75;83.15;101335.78;5089629;28;20066;-83
2021/10/15 00:16:59;;;;;;;14.32;5.85;;;;;;;12.74;83.29;101325.81;5089957;28;20044;-82
2021/10/15 00:19:26;;;;;;;17.38;6.40;;;;;;;12.74;83.72;101328.59;5087404;28;20047;-82
2021/10/15 00:21:52;;;;;;;13.77;6.10;;;;;;;12.76;83.75;101334.63;5085392;28;20337;-82
2021/10/15 00:24:19;;;;;;;14.90;6.97;;;;;;;12.77;84.09;101339.84;5069384;28;20052;-80
2021/10/15 00:26:46;;;;;;;13.30;5.63;;;;;;;12.77;83.87;101339.84;5085418;28;20040;-82
2021/10/15 00:29:13;;;;;;;13.48;6.35;;;;;;;12.76;84.08;101346.53;5083895;28;20105;-81
2021/10/15 00:31:40;;;;;;;7.93;4.60;;;;;;;12.70;84.33;101359.06;5084938;28;20480;-81
2021/10/15 00:34:07;;;;;;;6.13;3.03;;;;;;;12.64;84.78;101354.88;5085519;28;20801;-82
2021/10/15 00:36:34;;;;;;;5.30;2.88;;;;;;;12.58;84.67;101353.44;5087554;28;20455;-82
2021/10/15 00:39:00;;;;;;;4.47;1.77;;;;;;;12.52;84.61;101348.47;5086276;28;20058;-82
2021/10/15 00:41:27;;;;;;;5.25;1.75;;;;;;;12.49;84.40;101349.16;5086918;28;20054;-82
2021/10/15 00:43:59;;;;;;;5.80;1.38;;;;;;;12.45;84.42;101353.75;5085962;28;20056;-82
2021/10/15 00:46:26;;;;;;;5.95;1.70;;;;;;;12.44;84.29;101354.94;5083578;28;20055;-82
2021/10/15 00:48:53;;;;;;;4.05;2.13;;;;;;;12.42;84.38;101355.25;5085673;28;20065;-82
2021/10/15 00:51:20;;;;;;;3.22;1.08;;;;;;;12.42;84.32;101355.25;5087754;28;20061;-82
2021/10/15 00:53:49;;;;;;;3.65;0.90;;;;;;;12.41;84.18;101358.38;5087328;28;20097;-83
2021/10/15 00:56:16;;;;;;;3.50;1.02;;;;;;;12.41;83.94;101353.66;5071758;28;20044;-83
2021/10/15 00:58:43;;;;;;;2.15;0.80;;;;;;;12.40;84.18;101363.13;5090228;28;20366;-84
2021/10/15 01:01:10;;;;;;;5.95;1.00;;;;;;;12.41;84.11;101370.31;5091054;28;20051;-82
2021/10/15 01:03:37;;;;;;;6.20;1.70;;;;;;;12.43;84.25;101369.97;5087453;28;20507;-83
2021/10/15 01:06:04;;;;;;;5.18;1.00;;;;;;;12.44;84.04;101366.03;5088776;28;20046;-82
2021/10/15 01:08:33;;;;;;;2.20;1.00;;;;;;;12.43;83.91;101369.97;5086609;28;20066;-81
2021/10/15 01:11:00;;;;;;;1.58;0.88;;;;;;;12.41;83.83;101361.16;5088574;28;20036;-82
2021/10/15 01:13:28;;;;;;;1.88;0.63;;;;;;;12.38;84.09;101371.00;5092124;28;20036;-82
2021/10/15 01:16:03;;;;;;;6.22;1.48;;;;;;;12.37;84.19;101368.53;5088061;28;20118;-82
2021/10/15 01:18:30;;;;;;;2.58;0.70;;;;;;;12.40;83.81;101378.97;5089730;28;20044;-82
2021/10/15 01:20:58;;;;;;;3.50;1.42;;;;;;;12.39;83.79;101382.91;5086965;28;20044;-82
2021/10/15 01:23:25;;;;;;;1.85;0.90;;;;;;;12.39;83.87;101371.81;5090948;28;20567;-82
2021/10/15 01:25:54;;;;;;;6.93;1.98;;;;;;;12.37;83.67;101369.38;5088632;28;20048;-82
2021/10/15 01:28:22;;;;;;;6.40;1.02;;;;;;;12.38;83.89;101371.00;5071975;28;20072;-82
2021/10/15 01:30:49;;;;;;;4.18;0.82;;;;;;;12.38;83.54;101373.78;5087895;28;20051;-82
2021/10/15 01:33:16;;;;;;;5.70;0.90;;;;;;;12.37;83.55;101372.13;5084954;28;20075;-82
2021/10/15 01:35:44;;;;;;;4.00;1.33;;;;;;;12.37;83.50;101374.91;5088692;28;20066;-81
2021/10/15 01:38:11;;;;;;;5.43;1.02;;;;;;;12.36;83.45;101373.31;5087782;28;20042;-81
2021/10/15 01:40:39;;;;;;;2.25;0.65;;;;;;;12.35;83.42;101373.63;5084588;28;20055;-82
2021/10/15 01:43:06;;;;;;;4.05;1.02;;;;;;;12.36;83.24;101367.75;5087735;28;20117;-82
2021/10/15 01:45:33;;;;;;;5.05;1.80;;;;;;;12.34;83.09;101381.16;5070679;28;20036;-82
2021/10/15 01:48:01;;;;;;;6.53;1.52;;;;;;;12.32;82.87;101383.47;5091588;28;20115;-82
2021/10/15 01:50:29;;;;;;;6.15;1.05;;;;;;;12.28;82.95;101385.31;5088699;28;20114;-83
2021/10/15 01:52:56;;;;;;;5.07;1.40;;;;;;;12.24;82.80;101384.34;5085063;28;20554;-82
2021/10/15 01:55:23;;;;;;;8.55;1.52;;;;;;;12.24;82.65;101381.56;5087307;28;20032;-82
2021/10/15 01:57:50;;;;;;;6.35;2.05;;;;;;;12.23;82.57;101381.94;5087877;28;20608;-82
2021/10/15 02:00:17;;;;;;;11.82;1.65;;;;;;;12.20;82.43;101387.00;5088522;28;20044;-82
2021/10/15 02:02:44;;;;;;;8.40;1.45;;;;;;;12.14;82.17;101401.44;5087724;28;20055;-82
2021/10/15 02:05:14;;;;;;;8.00;1.45;;;;;;;12.11;82.17;101399.34;5068116;28;20135;-82
2021/10/15 02:07:41;;;;;;;7.75;1.50;;;;;;;12.09;81.99;101396.09;5105714;28;20170;-82
2021/10/15 02:10:10;;;;;;;14.93;3.58;;;;;;;12.08;81.87;101394.44;5088711;28;20109;-82
2021/10/15 02:12:39;;;;;;;6.50;1.55;;;;;;;12.05;81.83;101403.47;5089896;28;20636;-83
2021/10/15 02:15:08;;;;;;;6.72;1.65;;;;;;;12.04;81.91;101399.06;5088734;28;20052;-81
2021/10/15 02:17:35;;;;;;;5.50;2.25;;;;;;;12.04;81.53;101404.63;5089223;28;20480;-83
2021/10/15 02:20:05;;;;;;;11.13;1.65;;;;;;;12.06;81.40;101408.69;5088124;28;20911;-81
2021/10/15 02:22:32;;;;;;;11.05;1.55;;;;;;;12.06;81.38;101407.88;5087308;28;20039;-81
2021/10/15 02:24:59;;;;;;;7.15;1.73;;;;;;;12.04;81.58;101405.44;5088607;28;20043;-82
2021/10/15 02:27:26;;;;;;;9.82;2.25;;;;;;;12.04;81.34;101418.50;5087254;28;20054;-82
2021/10/15 02:29:52;;;;;;;11.38;1.80;;;;;;;12.05;81.30;101407.03;5085657;28;20044;-82
2021/10/15 02:32:19;;;;;;;12.05;3.28;;;;;;;12.06;81.41;101414.22;5085894;28;20139;-82
2021/10/15 02:34:46;;;;;;;12.13;2.25;;;;;;;12.04;81.44;101410.19;5091271;28;20040;-82
2021/10/15 02:37:13;;;;;;;8.77;1.75;;;;;;;12.04;81.43;101411.00;5087915;28;20057;-81
2021/10/15 02:39:39;;;;;;;10.32;2.08;;;;;;;12.04;81.45;101405.44;5088275;28;20035;-81
2021/10/15 02:42:06;;;;;;;7.22;1.40;;;;;;;12.06;81.46;101410.66;5100868;27;20047;-82
2021/10/15 02:44:34;;;;;;;14.77;3.55;;;;;;;12.07;81.39;101409.50;5087717;28;20048;-82
2021/10/15 02:47:02;;;;;;;7.43;2.22;;;;;;;12.07;81.45;101407.50;5088164;28;20131;-82
2021/10/15 02:49:29;;;;;;;9.27;2.40;;;;;;;12.10;81.35;101414.34;5088256;28;20510;-82
2021/10/15 02:51:59;;;;;;;11.70;1.60;;;;;;;12.08;81.39;101416.66;5087144;28;20441;-82
2021/10/15 02:54:28;;;;;;;14.85;2.75;;;;;;;12.09;81.34;101415.53;5088832;28;20488;-82
2021/10/15 02:56:55;;;;;;;5.53;1.65;;;;;;;12.10;81.21;101419.91;5089075;28;20065;-82
2021/10/15 02:59:21;;;;;;;8.57;2.45;;;;;;;12.09;81.22;101424.66;5086668;28;20051;-80
2021/10/15 03:01:48;;;;;;;8.77;2.20;;;;;;;12.05;81.29;101417.34;5086123;28;20044;-82
2021/10/15 03:04:15;;;;;;;9.73;2.40;;;;;;;12.04;81.53;101426.84;5087922;28;20051;-82
2021/10/15 03:06:43;;;;;;;11.05;1.85;;;;;;;12.03;81.38;101425.19;5088465;28;20036;-81
2021/10/15 03:09:09;;;;;;;9.88;2.03;;;;;;;12.05;81.42;101420.94;5091433;28;20035;-82
2021/10/15 03:11:36;;;;;;;7.82;1.65;;;;;;;12.07;81.37;101420.59;5070471;28;20046;-82
2021/10/15 03:14:03;;;;;;;11.80;2.95;;;;;;;12.07;81.28;101415.06;5087820;28;20046;-81
2021/10/15 03:16:29;;;;;;;7.03;1.10;;;;;;;12.09;81.08;101421.06;5085696;28;20040;-82
2021/10/15 03:18:56;;;;;;;8.18;1.42;;;;;;;12.07;81.19;101426.94;5086979;28;20776;-82
2021/10/15 03:21:23;;;;;;;8.20;1.63;;;;;;;12.05;81.02;101423.69;5087396;28;20044;-82
2021/10/15 03:23:50;;;;;;;7.13;1.42;;;;;;;12.03;81.24;101420.47;5070174;28;20066;-81
2021/10/15 03:26:21;;;;;;;10.20;1.60;;;;;;;12.03;81.04;101420.47;5087940;28;20036;-82
2021/10/15 03:28:47;;;;;;;4.35;1.33;;;;;;;12.02;81.25;101429.91;5086608;28;20849;-81
2021/10/15 03:31:14;;;;;;;5.95;1.55;;;;;;;12.03;80.97;101437.09;5088844;28;20123;-81
2021/10/15 03:33:41;;;;;;;7.88;1.42;;;;;;;12.03;81.10;101437.09;5087308;28;20047;-81
2021/10/15 03:36:08;;;;;;;5.78;1.45;;;;;;;12.02;81.13;101429.13;5085332;28;20048;-82
2021/10/15 03:38:34;;;;;;;12.30;1.50;;;;;;;12.00;80.91;101431.41;5086881;28;20376;-81
2021/10/15 03:41:01;;;;;;;10.02;1.70;;;;;;;12.00;80.75;101439.75;5086677;28;20103;-82
2021/10/15 03:43:28;;;;;;;6.60;1.13;;;;;;;11.97;80.67;101437.63;5087666;28;20409;-82
2021/10/15 03:45:54;;;;;;;11.35;1.73;;;;;;;11.93;80.53;101442.25;5085279;28;20113;-82
2021/10/15 03:48:21;;;;;;;4.03;0.82;;;;;;;11.89;79.74;101444.88;5088387;28;20067;-81
2021/10/15 03:50:48;;;;;;;10.32;1.38;;;;;;;11.87;79.82;101443.59;5086431;28;20074;-82
2021/10/15 03:53:15;;;;;;;10.30;1.25;;;;;;;11.85;79.53;101443.94;5086640;28;20047;-81
2021/10/15 03:55:44;;;;;;;8.02;1.13;;;;;;;11.86;79.25;101441.97;5087186;28;20054;-81
2021/10/15 03:58:11;;;;;;;9.77;1.08;;;;;;;11.83;78.92;101443.47;5085771;28;20575;-82
2021/10/15 04:00:38;;;;;;;4.13;1.33;;;;;;;11.85;78.93;101440.34;5087397;28;20093;-82
2021/10/15 04:03:07;;;;;;;10.35;1.35;;;;;;;11.82;78.49;101436.28;5084655;28;20415;-81
2021/10/15 04:05:33;;;;;;;4.70;1.60;;;;;;;11.79;78.58;101439.72;5085748;28;20436;-81
2021/10/15 04:08:00;;;;;;;5.30;0.95;;;;;;;11.77;78.27;101450.34;5086422;28;20384;-82
2021/10/15 04:10:27;;;;;;;8.52;1.60;;;;;;;11.75;78.35;101455.44;5084928;28;20047;-81
2021/10/15 04:12:53;;;;;;;7.68;1.02;;;;;;;11.73;78.04;101446.63;5087239;28;20048;-82
2021/10/15 04:15:20;;;;;;;7.68;1.30;;;;;;;11.73;78.03;101448.59;5086640;28;20044;-81
2021/10/15 04:17:47;;;;;;;9.20;1.30;;;;;;;11.72;77.69;101439.47;5086826;28;20066;-81
2021/10/15 04:20:14;;;;;;;5.15;1.85;;;;;;;11.71;77.60;101448.09;5083241;28;20052;-80
2021/10/15 04:22:40;;;;;;;6.32;1.20;;;;;;;11.70;77.54;101439.00;5066793;28;20488;-82
2021/10/15 04:25:08;;;;;;;12.07;1.35;;;;;;;11.70;77.23;101452.03;5084231;28;20051;-82
2021/10/15 04:27:35;;;;;;;7.80;1.23;;;;;;;11.70;77.13;101446.50;5066455;28;20541;-82
2021/10/15 04:30:03;;;;;;;4.47;0.90;;;;;;;11.68;76.97;101449.56;5085951;28;20036;-81
2021/10/15 04:32:29;;;;;;;8.38;1.63;;;;;;;11.66;76.82;101454.63;5076785;28;20036;-80
2021/10/15 04:34:56;;;;;;;2.55;0.75;;;;;;;11.66;76.69;101453.81;5087010;28;20128;-81
2021/10/15 04:37:23;;;;;;;6.25;1.42;;;;;;;11.65;76.58;101452.19;5087347;28;20044;-81
2021/10/15 04:39:50;;;;;;;6.75;1.20;;;;;;;11.64;76.48;101448.63;5086788;28;20048;-81
2021/10/15 04:42:16;;;;;;;5.85;0.77;;;;;;;11.63;76.08;101460.84;5086975;28;20048;-81
2021/10/15 04:44:43;;;;;;;7.90;1.10;;;;;;;11.61;76.06;101450.09;5086188;28;20064;-80
2021/10/15 04:47:10;;;;;;;6.53;0.93;;;;;;;11.61;75.97;101458.41;5086279;28;20046;-82
2021/10/15 04:49:37;;;;;;;7.47;1.10;;;;;;;11.61;75.96;101458.41;5086514;28;20043;-82
2021/10/15 04:52:04;;;;;;;7.30;1.60;;;;;;;11.57;75.80;101463.00;5084783;28;20046;-81
2021/10/15 04:54:30;;;;;;;4.50;0.80;;;;;;;11.52;75.90;101460.41;5081463;28;20093;-79
2021/10/15 04:56:57;;;;;;;9.35;1.50;;;;;;;11.53;75.75;101461.22;5086427;28;20066;-82
2021/10/15 04:59:24;;;;;;;1.50;0.80;;;;;;;11.54;75.78;101455.34;5082871;28;20047;-81
2021/10/15 05:01:52;;;;;;;5.82;1.25;;;;;;;11.54;75.79;101458.09;5084854;28;20036;-82
2021/10/15 05:04:19;;;;;;;24.85;1.95;;;;;;;11.52;75.81;101465.97;5084377;28;20040;-82
2021/10/15 05:06:46;;;;;;;3.55;1.10;;;;;;;11.52;75.73;101471.50;5085856;28;20089;-81
2021/10/15 05:09:25;;;;;;;5.45;0.82;;;;;;;11.50;75.76;101479.34;5086364;28;20119;-82
2021/10/15 05:11:54;;;;;;;4.30;0.65;;;;;;;11.51;75.72;101481.00;5067847;28;20044;-81
2021/10/15 05:14:21;;;;;;;3.10;1.05;;;;;;;11.52;75.41;101474.28;5085067;28;20032;-80
2021/10/15 05:16:48;;;;;;;3.80;1.38;;;;;;;11.51;75.24;101471.84;5084997;28;20121;-82
2021/10/15 05:19:15;;;;;;;5.63;0.90;;;;;;;11.45;75.28;101476.75;5085848;28;20036;-82
2021/10/15 05:21:42;;;;;;;4.10;1.15;;;;;;;11.44;75.01;101474.31;5086618;28;20043;-81
2021/10/15 05:24:08;;;;;;;4.93;0.80;;;;;;;11.42;74.95;101477.44;5083432;28;20495;-81
2021/10/15 05:26:35;;;;;;;8.70;1.17;;;;;;;11.44;74.56;101471.53;5082191;28;20048;-82
2021/10/15 05:29:03;;;;;;;2.95;0.88;;;;;;;11.42;74.54;101488.53;5085284;28;20062;-81
2021/10/15 05:31:29;;;;;;;3.25;0.85;;;;;;;11.37;74.42;101483.16;5083945;28;20044;-82
2021/10/15 05:33:56;;;;;;;6.03;0.80;;;;;;;11.32;73.94;101472.25;5083161;28;20047;-81
2021/10/15 05:36:23;;;;;;;3.13;1.40;;;;;;;11.29;73.91;101478.47;5081281;28;20484;-82
2021/10/15 05:38:49;;;;;;;6.97;1.15;;;;;;;11.23;73.89;101485.31;5086196;28;20865;-82
2021/10/15 05:41:16;;;;;;;7.03;1.80;;;;;;;11.22;74.06;101483.72;5089734;28;20048;-81
2021/10/15 05:43:43;;;;;;;6.30;0.88;;;;;;;11.23;74.03;101490.03;5090423;28;20517;-82
2021/10/15 05:46:10;;;;;;;4.00;1.17;;;;;;;11.20;74.29;101485.97;5089023;28;20040;-81
2021/10/15 05:48:37;;;;;;;5.85;1.10;;;;;;;11.16;74.38;101498.88;5090386;28;20585;-82
2021/10/15 05:51:08;;;;;;;8.25;1.13;;;;;;;11.14;74.46;101492.88;5090611;28;20047;-81
2021/10/15 05:53:35;;;;;;;6.95;1.40;;;;;;;11.13;74.43;101488.47;5088384;28;20039;-82
2021/10/15 05:58:50;;;;;;;4.32;1.20;;;;;;;11.11;74.28;101503.78;5089766;28;20079;-82
2021/10/15 06:01:22;;;;;;;7.22;2.03;;;;;;;11.05;74.54;101486.53;5090933;27;20044;-78
2021/10/15 06:04:42;;;;;;;4.65;1.05;;;;;;;11.03;74.64;101486.06;5072056;28;20056;-79
2021/10/15 06:14:34;;;;;;;8.65;1.60;;;;;;;10.93;74.39;101505.81;5088704;28;20076;-79
2021/10/15 06:17:07;;;;;;;5.80;1.52;;;;;;;10.91;74.40;101528.28;5088540;28;20093;-78
2021/10/15 06:22:11;;;;;;;8.23;2.08;;;;;;;10.83;74.35;101528.28;5086458;28;20036;-79
2021/10/15 06:24:38;;;;;;;5.65;1.00;;;;;;;10.77;74.48;101521.31;5089686;28;20123;-79
2021/10/15 06:27:05;;;;;;;4.15;1.13;;;;;;;10.74;74.70;101533.03;5087201;28;20048;-79
2021/10/15 06:29:32;;;;;;;8.25;1.77;;;;;;;10.68;74.71;101545.41;5088701;28;20040;-79
2021/10/15 06:31:58;;;;;;;8.45;1.17;;;;;;;10.67;74.71;101541.03;5102786;28;20055;-78
2021/10/15 06:34:25;;;;;;;5.95;1.40;;;;;;;10.62;74.58;101530.09;5086403;28;20054;-79
2021/10/15 06:36:52;;;;;;;5.57;1.20;;;;;;;10.58;74.44;101529.94;5086455;28;20048;-78
2021/10/15 06:39:19;;;;;;;4.78;1.10;;;;;;;10.58;74.47;101552.09;5086845;28;20043;-79
2021/10/15 06:41:46;;;;;;;5.50;1.45;;;;;;;10.58;74.44;101545.75;5088045;28;20044;-82
2021/10/15 06:44:12;;;;;;;4.85;1.00;;;;;;;10.52;74.41;101536.78;5086486;28;20070;-79
2021/10/15 06:46:39;;;;;;;5.07;1.55;;;;;;;10.48;74.32;101548.84;5088744;28;20541;-79
2021/10/15 06:49:06;;;;;;;5.82;1.40;;;;;;;10.41;74.42;101552.06;5087607;28;20483;-79
2021/10/15 06:51:38;;;;;;;4.88;1.58;;;;;;;10.37;74.34;101546.41;5087018;28;20073;-78
2021/10/15 06:54:04;;;;;;;7.03;2.03;;;;;;;10.34;74.10;101551.75;5087846;28;20040;-79
2021/10/15 06:56:31;;;;;;;4.20;1.08;;;;;;;10.27;74.28;101555.00;5087868;28;20036;-79
2021/10/15 06:58:58;;;;;;;11.73;1.98;;;;;;;10.21;74.18;101563.78;5087808;28;20043;-78
2021/10/15 07:01:25;;;;;;;4.97;1.17;;;;;;;10.20;74.19;101551.91;5086979;28;20051;-78
2021/10/15 07:03:52;;;;;;;6.85;1.42;;;;;;;10.14;74.24;101564.25;5084073;28;20051;-78
2021/10/15 07:06:18;;;;;;;3.28;0.90;;;;;;;10.08;74.11;101560.00;5085114;28;20039;-78
2021/10/15 07:08:45;;;;;;;6.90;1.20;;;;;;;10.05;74.15;101559.81;5086410;28;20404;-79
2021/10/15 07:11:13;;;;;;;5.68;1.10;;;;;;;10.01;74.17;101553.28;5084163;28;20036;-79
2021/10/15 07:13:42;;;;;;;9.40;1.30;;;;;;;9.97;74.21;101558.66;5087709;28;20403;-78
2021/10/15 07:16:12;;;;;;;6.28;1.30;;;;;;;9.94;74.19;101569.53;5087151;28;20042;-78
2021/10/15 07:18:40;;;;;;;9.05;1.42;;;;;;;9.85;74.32;101572.25;5086874;28;20051;-78
2021/10/15 07:21:07;;;;;;;12.30;3.92;;;;;;;9.79;74.17;101562.50;5086173;28;20044;-78
2021/10/15 07:23:34;;;;;;;5.40;1.13;;;;;;;9.75;74.24;101569.78;5086717;28;20044;-79
2021/10/15 07:26:02;;;;;;;11.27;1.25;;;;;;;9.74;74.17;101573.72;5087970;28;20381;-78
2021/10/15 07:28:29;;;;;;;5.60;1.45;;;;;;;9.75;74.22;101572.56;5088060;28;20123;-78
2021/10/15 07:30:58;;;;;;;7.18;1.05;;;;;;;9.71;74.16;101571.59;5087715;28;20050;-79
2021/10/15 07:33:25;;;;;;;4.97;1.30;;;;;;;9.70;74.27;101569.94;5087536;28;20052;-79
2021/10/15 07:35:52;;;;;;;5.22;1.10;;;;;;;9.70;74.09;101569.94;5084533;28;20040;-83
2021/10/15 07:38:19;;;;;;;4.88;1.05;;;;;;;9.69;74.16;101582.94;5083460;28;20052;-82
2021/10/15 07:40:47;;;;;;;5.78;1.27;;;;;;;9.69;74.01;101582.13;5084035;28;20048;-77
2021/10/15 07:43:14;;;;;;;13.02;1.35;;;;;;;9.70;74.19;101567.19;5088502;28;20040;-78
2021/10/15 07:45:40;;;;;;;6.28;1.15;;;;;;;9.69;74.34;101573.84;5087426;28;20126;-77
2021/10/15 07:48:07;;;;;;;3.75;1.27;;;;;;;9.70;74.14;101586.53;5087813;28;20063;-77
2021/10/15 07:50:34;;;;;;;7.47;1.90;;;;;;;9.69;74.14;101584.88;5083630;28;20040;-79
2021/10/15 07:53:01;;;;;;;6.75;1.40;;;;;;;9.69;74.17;101587.66;5076420;28;20125;-80
2021/10/15 07:55:28;;;;;;;5.25;1.65;;;;;;;9.72;74.10;101587.03;5083731;28;20044;-80
2021/10/15 07:57:54;;;;;;;4.32;0.90;;;;;;;9.72;74.03;101595.31;5085001;28;20062;-79
2021/10/15 08:00:21;;;;;;;7.18;2.95;;;;;;;9.72;74.24;101595.31;5084228;28;20032;-79
2021/10/15 08:02:49;;;;;;;8.18;2.30;;;;;;;9.75;74.20;101594.69;5081103;28;20054;-79
2021/10/15 08:05:17;;;;;;;4.07;1.20;;;;;;;9.77;74.16;101597.94;5086890;28;20048;-78
2021/10/15 08:07:45;;;;;;;8.73;1.63;;;;;;;9.79;74.05;101602.00;5084327;28;20075;-80
2021/10/15 08:10:12;;;;;;;3.90;1.35;;;;;;;9.82;73.99;101601.38;5083474;28;20048;-80
2021/10/15 08:12:40;;;;;;;6.22;1.27;;;;;;;9.86;73.76;101601.56;5083672;28;20032;-80
2021/10/15 08:15:10;;;;;;;6.80;1.65;;;;;;;9.83;73.88;101602.19;5084619;28;20063;-80
2021/10/15 08:17:42;;;;;;;10.90;1.48;;;;;;;9.86;73.95;101607.09;5085721;28;20476;-80
2021/10/15 08:20:09;;;;;;;7.35;1.58;;;;;;;9.89;74.04;101614.75;5084372;28;20190;-80
2021/10/15 08:22:36;;;;;;;8.93;2.85;;;;;;;9.88;73.98;101615.88;5085402;28;20140;-80
2021/10/15 08:25:23;;;;;;;6.40;1.23;;;;;;;9.91;73.95;101612.47;5082427;28;20063;-80
2021/10/15 08:27:50;;;;;;;9.20;1.25;;;;;;;9.97;73.94;101618.69;5083186;28;20048;-79
2021/10/15 08:30:16;;;;;;;10.02;1.35;;;;;;;10.00;73.91;101627.19;5085301;28;20076;-80
2021/10/15 08:32:43;;;;;;;6.63;1.38;;;;;;;10.04;74.10;101624.56;5082793;28;20059;-79
2021/10/15 08:35:10;;;;;;;4.65;1.00;;;;;;;10.05;74.14;101627.03;5080410;28;20482;-80
2021/10/15 08:37:40;;;;;;;6.25;1.10;;;;;;;10.08;74.45;101631.09;5086292;28;20036;-80
2021/10/15 08:40:08;;;;;;;6.70;1.10;;;;;;;10.14;74.22;101627.88;5086696;28;20051;-80
2021/10/15 08:42:37;;;;;;;5.00;1.02;;;;;;;10.19;74.25;101627.75;5080556;28;20074;-80
2021/10/15 08:45:05;;;;;;;8.05;1.35;;;;;;;10.22;74.16;101635.41;5085303;28;20062;-80
2021/10/15 08:47:32;;;;;;;7.97;1.00;;;;;;;10.27;74.17;101638.00;5082545;28;20123;-80
2021/10/15 08:50:20;;;;;;;7.18;1.02;;;;;;;10.32;74.32;101631.53;5081297;28;20123;-78
2021/10/15 08:52:47;;;;;;;4.57;1.23;;;;;;;10.40;74.22;101628.78;5084729;28;20036;-79
2021/10/15 08:55:15;;;;;;;3.38;0.98;;;;;;;10.45;74.14;101640.84;5084703;28;20111;-80
2021/10/15 08:57:54;;;;;;;15.20;3.05;;;;;;;10.47;73.95;101639.38;5085063;28;20055;-80
2021/10/15 09:00:30;;;;;;;4.60;1.30;;;;;;;10.54;74.05;101641.69;5079583;28;20150;-80
2021/10/15 09:03:20;;;;;;;4.00;1.00;;;;;;;10.58;73.89;101639.88;5084237;28;20044;-80
2021/10/15 09:06:04;;;;;;;4.88;1.40;;;;;;;10.59;73.79;101641.53;5082226;28;20052;-81
2021/10/15 09:08:51;;;;;;;5.82;1.63;;;;;;;10.62;73.74;101641.69;5084216;28;20143;-81
2021/10/15 09:11:32;;;;;;;7.82;1.63;;;;;;;10.68;73.57;101650.66;5079197;28;20039;-81
2021/10/15 09:14:04;;;;;;;10.68;1.70;;;;;;;10.73;73.42;101644.94;5085632;28;20126;-80
2021/10/15 09:16:52;;;;;;;12.50;1.15;;;;;;;10.75;73.37;101656.53;5084570;28;20040;-80
2021/10/15 09:19:23;;;;;;;7.82;1.30;;;;;;;10.80;73.19;101648.06;5089125;28;20032;-80
2021/10/15 09:22:09;;;;;;;9.13;1.92;;;;;;;10.83;73.00;101647.41;5087658;28;20040;-80
2021/10/15 09:24:53;;;;;;;5.60;1.30;;;;;;;10.87;73.12;101653.94;5086503;28;20043;-80
2021/10/15 09:27:29;;;;;;;6.68;1.23;;;;;;;10.92;73.01;101651.00;5085147;28;20480;-80
2021/10/15 09:30:00;;;;;;;4.50;0.95;;;;;;;10.97;73.09;101648.88;5086707;28;20043;-80
2021/10/15 09:32:32;;;;;;;6.03;1.00;;;;;;;11.02;72.96;101654.25;5088264;28;20040;-79
2021/10/15 09:34:59;;;;;;;6.35;1.10;;;;;;;11.07;72.90;101653.28;5089328;28;20055;-79
2021/10/15 09:37:33;;;;;;;4.90;1.33;;;;;;;11.12;72.43;101658.66;5088992;28;20044;-80
2021/10/15 09:40:15;;;;;;;4.95;1.00;;;;;;;11.13;72.51;101651.97;5089182;28;20074;-81
2021/10/15 09:42:49;;;;;;;9.07;2.45;;;;;;;11.16;72.32;101654.09;5085917;28;20036;-81
2021/10/15 09:45:19;;;;;;;6.95;1.00;;;;;;;11.19;72.31;101645.13;5103390;28;20048;-81
2021/10/15 09:47:50;;;;;;;6.40;1.52;;;;;;;11.24;72.21;101658.81;5086723;28;20056;-80
2021/10/15 09:50:39;;;;;;;6.70;1.60;;;;;;;11.22;70.57;101652.78;5084380;28;20063;-80
2021/10/15 09:53:09;;;;;;;9.15;1.13;;;;;;;11.22;71.58;101646.44;5097444;27;20043;-80
2021/10/15 09:55:39;;;;;;;4.78;0.98;;;;;;;11.23;71.27;101645.28;5084943;28;20055;-79
2021/10/15 09:58:12;;;;;;;5.72;0.88;;;;;;;11.28;71.26;101645.91;5072135;28;20129;-79
2021/10/15 10:00:40;;;;;;;5.60;0.85;;;;;;;11.33;70.98;101654.06;5088059;28;20058;-79
2021/10/15 10:03:08;;;;;;;5.00;0.90;;;;;;;11.31;70.81;101653.59;5088634;28;20549;-79
2021/10/15 10:05:37;;;;;;;2.78;0.60;;;;;;;11.30;70.31;101656.69;5088843;28;20055;-79
2021/10/15 10:08:07;;;;;;;2.45;0.45;;;;;;;11.31;70.02;101659.13;5099361;27;20047;-79
2021/10/15 10:10:36;;;;;;;6.32;0.60;;;;;;;11.35;70.00;101651.81;5070140;28;20396;-80
2021/10/15 10:13:03;;;;;;;4.82;1.50;;;;;;;11.39;69.73;101663.03;5088874;28;20123;-79
2021/10/15 10:15:33;;;;;;;4.95;0.57;;;;;;;11.45;69.65;101664.50;5086830;28;20036;-79
2021/10/15 10:18:28;;;;;;;2.13;0.50;;;;;;;11.49;68.90;101654.41;5085791;28;20040;-79
2021/10/15 10:21:09;;;;;;;5.82;0.73;;;;;;;11.51;69.15;101658.47;5090140;28;20048;-79
2021/10/15 10:23:37;;;;;;;5.07;0.82;;;;;;;11.49;68.68;101657.97;5087304;28;20138;-79
2021/10/15 10:26:08;;;;;;;1.02;0.40;;;;;;;11.50;68.54;101658.78;5085061;28;20048;-84
2021/10/15 10:28:35;;;;;;;4.78;0.75;;;;;;;11.52;68.57;101659.25;5087646;28;20240;-82
2021/10/15 10:31:05;;;;;;;2.88;0.65;;;;;;;11.57;68.72;101653.53;5087023;28;20114;-82
2021/10/15 10:33:52;;;;;;;4.88;0.82;;;;;;;11.65;68.53;101668.56;5086419;28;20040;-82
2021/10/15 10:36:19;;;;;;;10.48;2.10;;;;;;;11.70;68.44;101671.19;5085792;28;20431;-83
2021/10/15 10:38:45;;;;;;;5.97;1.30;;;;;;;11.70;68.36;101655.34;5087319;28;20047;-83
2021/10/15 10:41:26;;;;;;;6.13;1.33;;;;;;;11.70;67.95;101660.09;5085945;28;20446;-83
2021/10/15 10:43:53;;;;;;;8.25;3.38;;;;;;;11.71;68.24;101661.69;5087726;27;20132;-83
2021/10/15 10:46:22;;;;;;;4.95;1.02;;;;;;;11.73;68.05;101664.97;5060208;28;20060;-83
2021/10/15 10:48:49;;;;;;;2.70;0.55;;;;;;;11.79;68.05;101670.00;5086282;28;20553;-81
2021/10/15 10:51:18;;;;;;;5.35;0.90;;;;;;;11.81;67.20;101666.91;5087174;28;20052;-82
2021/10/15 10:53:57;;;;;;;5.43;0.75;;;;;;;11.86;67.01;101677.81;5068096;28;20074;-85
2021/10/15 10:56:39;;;;;;;1.27;0.68;;;;;;;11.89;66.55;101669.63;5079838;28;20048;-82
2021/10/15 10:59:19;;;;;;;;;;;;;;;11.94;66.58;101665.88;5088301;28;20043;-84
2021/10/15 11:01:45;;;;;;;2.83;0.50;;;;;;;12.03;67.40;101661.09;5084717;28;19928;-84
2021/10/15 11:04:29;;;;;;;2.50;0.50;;;;;;;12.06;66.22;101669.59;5085235;28;20036;-83
2021/10/15 11:07:02;;;;;;;3.40;0.63;;;;;;;12.10;66.45;101670.53;5086592;28;20115;-83
2021/10/15 11:09:29;;;;;;;3.85;1.02;;;;;;;12.12;66.11;101659.94;5104354;28;20064;-82
2021/10/15 11:11:55;;;;;;;9.13;0.70;;;;;;;12.19;66.11;101674.09;5086336;28;20477;-82
2021/10/15 11:14:43;;;;;;;4.60;0.75;;;;;;;12.26;65.47;101672.78;5086959;28;20123;-79
2021/10/15 11:17:11;;;;;;;3.50;0.73;;;;;;;12.29;65.81;101675.69;5087536;28;20040;-80
2021/10/15 11:19:38;;;;;;;3.13;0.50;;;;;;;12.26;65.34;101673.56;5058528;28;20052;-80
2021/10/15 11:22:04;;;;;;;6.40;0.50;;;;;;;12.19;65.54;101673.28;5058852;28;20046;-79
2021/10/15 11:24:31;;;;;;;5.40;0.60;;;;;;;12.14;65.60;101667.91;5085242;28;20039;-79
2021/10/15 11:26:58;;;;;;;4.78;0.60;;;;;;;12.11;65.30;101663.84;5086241;28;20036;-80
2021/10/15 11:29:25;;;;;;;4.63;0.55;;;;;;;12.14;65.41;101668.75;5086970;28;20047;-80
2021/10/15 11:31:56;;;;;;;4.15;0.57;;;;;;;12.23;64.34;101665.94;5081719;28;20040;-80
2021/10/15 11:34:24;;;;;;;6.80;2.40;;;;;;;12.34;65.10;101663.59;5087414;28;20396;-79
2021/10/15 11:37:04;;;;;;;2.65;0.88;;;;;;;12.43;64.56;101667.94;5087778;28;20784;-80
2021/10/15 11:39:31;;;;;;;1.58;0.65;;;;;;;12.48;64.80;101659.41;5085562;28;20128;-79
2021/10/15 11:41:58;;;;;;;3.00;1.55;;;;;;;12.58;64.74;101664.56;5086788;28;20064;-80
2021/10/15 11:44:33;;;;;;;4.70;0.75;;;;;;;12.62;64.19;101664.72;5085708;28;20058;-80
2021/10/15 11:46:59;;;;;;;3.85;0.85;;;;;;;12.65;64.36;101664.06;5084666;28;20067;-80